createdAt,value
2019-01-14T00:00:42.583Z,16.85
2019-01-14T00:03:09.813Z,16.85
2019-01-14T00:05:37.033Z,16.90
2019-01-14T00:08:04.390Z,16.94
2019-01-14T00:10:31.604Z,16.92
2019-01-14T00:12:58.956Z,16.87
2019-01-14T00:15:26.200Z,17.04
2019-01-14T00:17:53.429Z,17.15
2019-01-14T00:20:20.741Z,17.09
2019-01-14T00:22:48.607Z,17.08
2019-01-14T00:25:29.365Z,17.09
2019-01-14T00:27:56.625Z,17.01
2019-01-14T00:30:23.901Z,17.00
2019-01-14T00:32:51.069Z,16.99
2019-01-14T00:35:18.312Z,16.99
2019-01-14T00:37:45.498Z,16.95
2019-01-14T00:40:14.500Z,16.94
2019-01-14T00:42:42.101Z,16.92
2019-01-14T00:45:09.362Z,16.89
2019-01-14T00:47:36.866Z,16.87
2019-01-14T00:50:04.806Z,16.91
2019-01-14T00:52:32.074Z,16.91
2019-01-14T00:54:59.304Z,16.91
2019-01-14T00:57:26.508Z,16.89
2019-01-14T00:59:53.853Z,16.89
2019-01-14T01:02:21.060Z,16.86
2019-01-14T01:04:48.314Z,16.89
2019-01-14T01:07:15.573Z,16.90
2019-01-14T01:09:42.754Z,16.90
2019-01-14T01:12:10.295Z,16.89
2019-01-14T01:14:37.496Z,16.86
2019-01-14T01:17:04.695Z,16.86
2019-01-14T01:19:31.938Z,16.85
2019-01-14T01:21:59.123Z,16.83
2019-01-14T01:24:26.331Z,16.78
2019-01-14T01:26:53.542Z,16.85
2019-01-14T01:29:20.798Z,16.85
2019-01-14T01:31:48.007Z,16.87
2019-01-14T01:34:15.214Z,16.83
2019-01-14T01:36:42.445Z,16.83
2019-01-14T01:39:09.633Z,16.83
2019-01-14T01:41:36.872Z,16.85
2019-01-14T01:44:04.084Z,16.85
2019-01-14T01:46:31.338Z,16.87
2019-01-14T01:48:58.542Z,16.83
2019-01-14T01:51:25.830Z,16.83
2019-01-14T01:53:53.039Z,16.83
2019-01-14T01:56:20.242Z,16.81
2019-01-14T01:58:47.477Z,16.81
2019-01-14T02:01:14.718Z,16.82
2019-01-14T02:03:41.925Z,16.84
2019-01-14T02:06:09.151Z,16.84
2019-01-14T02:08:36.398Z,16.87
2019-01-14T02:11:03.723Z,16.84
2019-01-14T02:13:30.945Z,16.78
2019-01-14T02:15:58.123Z,16.77
2019-01-14T02:18:25.356Z,16.77
2019-01-14T02:20:52.608Z,16.83
2019-01-14T02:23:19.814Z,16.85
2019-01-14T02:25:47.141Z,16.85
2019-01-14T02:28:14.320Z,16.84
2019-01-14T02:30:41.474Z,16.81
2019-01-14T02:33:08.731Z,16.82
2019-01-14T02:35:35.921Z,16.84
2019-01-14T02:38:03.122Z,16.84
2019-01-14T02:40:30.334Z,16.87
2019-01-14T02:42:57.543Z,16.87
2019-01-14T02:45:24.795Z,16.88
2019-01-14T02:47:52.023Z,16.87
2019-01-14T02:50:19.235Z,16.87
2019-01-14T02:52:46.436Z,16.82
2019-01-14T02:55:13.677Z,16.82
2019-01-14T02:57:40.893Z,16.79
2019-01-14T03:00:11.638Z,16.78
2019-01-14T03:02:38.823Z,16.82
2019-01-14T03:05:06.112Z,16.85
2019-01-14T03:07:33.274Z,16.85
2019-01-14T03:10:00.519Z,16.87
2019-01-14T03:12:27.705Z,16.89
2019-01-14T03:14:55.018Z,16.87
2019-01-14T03:17:22.235Z,16.80
2019-01-14T03:19:49.409Z,16.80
2019-01-14T03:22:16.634Z,16.79
2019-01-14T03:24:43.853Z,16.79
2019-01-14T03:27:11.013Z,16.82
2019-01-14T03:29:38.284Z,16.80
2019-01-14T03:32:05.474Z,16.82
2019-01-14T03:34:32.674Z,16.81
2019-01-14T03:37:05.440Z,16.83
2019-01-14T03:39:29.107Z,16.82
2019-01-14T03:41:56.318Z,16.81
2019-01-14T03:44:23.545Z,16.74
2019-01-14T03:46:50.745Z,16.74
2019-01-14T03:49:17.968Z,16.77
2019-01-14T03:51:45.152Z,16.79
2019-01-14T03:54:12.351Z,16.82
2019-01-14T03:56:39.564Z,16.81
2019-01-14T03:59:06.811Z,16.79
2019-01-14T04:01:34.046Z,16.75
2019-01-14T04:04:01.258Z,16.76
2019-01-14T04:06:28.501Z,16.66
2019-01-14T04:08:55.705Z,16.63
2019-01-14T04:11:22.943Z,16.60
2019-01-14T04:13:50.154Z,16.60
2019-01-14T04:16:17.377Z,16.60
2019-01-14T04:18:44.681Z,16.60
2019-01-14T04:21:11.887Z,16.53
2019-01-14T04:23:39.131Z,16.52
2019-01-14T04:26:06.370Z,16.52
2019-01-14T04:28:33.549Z,16.58
2019-01-14T04:31:00.735Z,16.58
2019-01-14T04:33:27.982Z,16.53
2019-01-14T04:35:55.228Z,16.56
2019-01-14T04:38:22.445Z,16.59
2019-01-14T04:40:49.621Z,16.62
2019-01-14T04:43:16.837Z,16.66
2019-01-14T04:45:44.020Z,16.66
2019-01-14T04:48:11.243Z,16.65
2019-01-14T04:50:38.455Z,16.65
2019-01-14T04:53:05.713Z,16.65
2019-01-14T04:55:32.931Z,16.68
2019-01-14T04:58:00.134Z,16.71
2019-01-14T05:00:27.357Z,16.68
2019-01-14T05:02:54.757Z,16.67
2019-01-14T05:05:22.101Z,16.66
2019-01-14T05:07:49.302Z,16.67
2019-01-14T05:10:16.913Z,16.74
2019-01-14T05:12:44.193Z,16.76
2019-01-14T05:15:11.431Z,16.73
2019-01-14T05:17:38.646Z,16.73
2019-01-14T05:20:07.161Z,16.77
2019-01-14T05:22:34.392Z,16.79
2019-01-14T05:25:01.613Z,16.79
2019-01-14T05:27:28.835Z,16.81
2019-01-14T05:29:56.099Z,16.81
2019-01-14T05:32:23.299Z,16.78
2019-01-14T05:34:50.526Z,16.79
2019-01-14T05:37:17.758Z,16.79
2019-01-14T05:39:44.926Z,16.80
2019-01-14T05:42:12.134Z,16.80
2019-01-14T05:44:39.377Z,16.84
2019-01-14T05:47:06.581Z,16.84
2019-01-14T05:49:33.866Z,16.84
2019-01-14T05:52:02.544Z,16.89
2019-01-14T05:54:29.838Z,16.84
2019-01-14T05:56:57.693Z,16.87
2019-01-14T05:59:24.989Z,16.85
2019-01-14T06:01:52.309Z,16.85
2019-01-14T06:04:19.531Z,16.80
2019-01-14T06:06:46.764Z,16.82
2019-01-14T06:09:14.034Z,16.80
2019-01-14T06:11:41.380Z,16.79
2019-01-14T06:14:08.636Z,16.80
2019-01-14T06:16:35.842Z,16.74
2019-01-14T06:19:03.028Z,16.74
2019-01-14T06:21:30.282Z,16.72
2019-01-14T06:23:57.453Z,16.72
2019-01-14T06:26:25.850Z,16.71
2019-01-14T06:28:53.170Z,16.71
2019-01-14T06:31:20.461Z,16.67
2019-01-14T06:33:47.780Z,16.64
2019-01-14T06:36:15.016Z,16.60
2019-01-14T06:38:42.236Z,16.60
2019-01-14T06:41:09.438Z,16.64
2019-01-14T06:43:36.795Z,16.64
2019-01-14T06:46:03.993Z,16.62
2019-01-14T06:48:31.277Z,16.66
2019-01-14T06:50:58.478Z,16.66
2019-01-14T06:53:25.709Z,16.71
2019-01-14T06:55:52.913Z,16.74
2019-01-14T06:58:20.116Z,16.75
2019-01-14T07:00:47.455Z,16.75
2019-01-14T07:03:14.674Z,16.74
2019-01-14T07:05:41.877Z,16.77
2019-01-14T07:08:09.154Z,16.80
2019-01-14T07:10:36.302Z,16.80
2019-01-14T07:13:03.597Z,16.78
2019-01-14T07:15:31.104Z,16.78
2019-01-14T07:17:58.499Z,16.78
2019-01-14T07:20:25.875Z,16.77
2019-01-14T07:22:53.132Z,16.80
2019-01-14T07:25:20.381Z,16.84
2019-01-14T07:27:47.605Z,16.76
2019-01-14T07:30:16.663Z,16.76
2019-01-14T07:32:44.003Z,16.80
2019-01-14T07:35:11.368Z,16.81
2019-01-14T07:37:38.557Z,16.81
2019-01-14T07:40:07.333Z,16.78
2019-01-14T07:42:34.533Z,16.81
2019-01-14T07:45:01.852Z,16.78
2019-01-14T07:47:29.062Z,16.77
2019-01-14T07:56:28.605Z,16.79
2019-01-14T07:58:56.461Z,16.81
2019-01-14T08:01:23.683Z,16.79
2019-01-14T08:03:50.918Z,16.78
2019-01-14T08:06:18.095Z,16.79
2019-01-14T08:08:45.311Z,16.82
2019-01-14T08:11:12.565Z,16.82
2019-01-14T08:16:41.172Z,16.80
2019-01-14T08:19:08.385Z,16.75
2019-01-14T08:21:35.622Z,16.73
2019-01-14T08:24:02.813Z,16.73
2019-01-14T08:26:29.993Z,16.79
2019-01-14T08:28:57.297Z,16.80
2019-01-14T08:31:24.449Z,16.77
2019-01-14T08:33:51.605Z,16.79
2019-01-14T08:36:18.932Z,16.77
2019-01-14T08:38:46.106Z,16.85
2019-01-14T08:41:14.111Z,16.85
2019-01-14T08:43:41.692Z,16.83
2019-01-14T08:46:09.303Z,16.83
2019-01-14T08:48:36.502Z,16.83
2019-01-14T08:51:05.465Z,16.86
2019-01-14T08:53:34.169Z,16.86
2019-01-14T08:56:01.507Z,16.90
2019-01-14T08:58:28.674Z,16.94
2019-01-14T09:00:55.838Z,16.98
2019-01-14T09:03:23.060Z,16.95
2019-01-14T09:05:50.194Z,16.96
2019-01-14T09:08:17.402Z,16.90
2019-01-14T09:10:44.727Z,16.93
2019-01-14T09:13:11.933Z,16.98
2019-01-14T09:15:39.151Z,16.94
2019-01-14T09:18:06.352Z,16.94
2019-01-14T09:20:33.536Z,16.96
2019-01-14T09:23:00.731Z,16.98
2019-01-14T09:25:28.075Z,17.00
2019-01-14T09:27:55.232Z,17.00
2019-01-14T09:30:24.086Z,16.97
2019-01-14T09:32:51.294Z,16.97
2019-01-14T09:35:18.469Z,17.00
2019-01-14T09:37:45.806Z,17.03
2019-01-14T09:40:14.984Z,17.03
2019-01-14T09:42:42.189Z,17.11
2019-01-14T09:45:09.444Z,17.17
2019-01-14T09:47:36.613Z,17.17
2019-01-14T09:50:04.506Z,17.12
2019-01-14T09:52:31.730Z,17.12
2019-01-14T09:54:58.929Z,17.12
2019-01-14T09:57:26.212Z,17.03
2019-01-14T09:59:53.360Z,17.00
2019-01-14T10:02:20.550Z,17.01
2019-01-14T10:04:47.757Z,17.01
2019-01-14T10:07:14.944Z,17.04
2019-01-14T10:09:42.265Z,17.08
2019-01-14T10:12:09.460Z,17.07
2019-01-14T10:14:36.763Z,17.05
2019-01-14T10:17:03.977Z,17.06
2019-01-14T10:19:31.192Z,17.16
2019-01-14T10:21:58.445Z,17.16
2019-01-14T10:24:25.637Z,17.09
2019-01-14T10:26:52.839Z,17.06
2019-01-14T10:29:20.094Z,17.07
2019-01-14T10:31:47.365Z,17.07
2019-01-14T10:34:14.543Z,17.04
2019-01-14T10:36:41.868Z,17.10
2019-01-14T10:39:09.034Z,17.13
2019-01-14T10:41:36.214Z,17.18
2019-01-14T10:44:03.534Z,17.16
2019-01-14T10:46:30.739Z,17.19
2019-01-14T10:48:57.939Z,17.13
2019-01-14T10:51:25.180Z,17.13
2019-01-14T10:53:52.391Z,17.16
2019-01-14T10:56:19.605Z,17.15
2019-01-14T10:58:47.011Z,17.15
2019-01-14T11:01:14.171Z,17.16
2019-01-14T11:03:41.355Z,17.15
2019-01-14T11:06:08.547Z,17.17
2019-01-14T11:08:35.896Z,17.17
2019-01-14T11:11:03.087Z,17.16
2019-01-14T11:13:33.811Z,17.16
2019-01-14T11:16:01.143Z,17.19
2019-01-14T11:18:28.375Z,17.19
2019-01-14T11:20:55.585Z,17.24
2019-01-14T11:23:22.966Z,17.23
2019-01-14T11:25:50.255Z,17.27
2019-01-14T11:28:17.539Z,17.24
2019-01-14T11:30:44.795Z,17.25
2019-01-14T11:33:11.968Z,17.25
2019-01-14T11:35:39.275Z,17.35
2019-01-14T11:38:08.433Z,17.47
2019-01-14T11:40:37.928Z,17.47
2019-01-14T11:43:05.167Z,17.49
2019-01-14T11:45:32.367Z,17.50
2019-01-14T11:47:59.627Z,17.51
2019-01-14T11:50:26.856Z,17.42
2019-01-14T11:52:54.153Z,17.42
2019-01-14T11:55:21.479Z,17.39
2019-01-14T11:57:48.913Z,17.39
2019-01-14T12:00:23.879Z,17.40
2019-01-14T12:02:51.070Z,17.41
2019-01-14T12:05:18.356Z,17.41
2019-01-14T12:07:46.561Z,17.44
2019-01-14T12:10:13.941Z,17.48
2019-01-14T12:12:41.219Z,17.45
2019-01-14T12:15:16.908Z,17.45
2019-01-14T12:17:44.120Z,17.47
2019-01-14T12:20:12.010Z,17.48
2019-01-14T12:22:39.205Z,17.48
2019-01-14T12:25:06.623Z,17.43
2019-01-14T12:27:33.839Z,17.43
2019-01-14T12:30:01.010Z,17.45
2019-01-14T12:32:28.217Z,17.55
2019-01-14T12:34:55.611Z,17.50
2019-01-14T12:37:22.775Z,17.50
2019-01-14T12:39:49.964Z,17.45
2019-01-14T12:42:17.260Z,17.45
2019-01-14T12:44:44.446Z,17.51
2019-01-14T12:47:11.618Z,17.57
2019-01-14T12:49:38.822Z,17.61
2019-01-14T12:52:06.176Z,17.62
2019-01-14T12:54:33.359Z,17.62
2019-01-14T12:57:00.587Z,17.70
2019-01-14T12:59:27.759Z,17.71
2019-01-14T13:01:55.000Z,17.65
2019-01-14T13:04:22.167Z,17.65
2019-01-14T13:06:49.428Z,17.57
2019-01-14T13:09:16.618Z,17.59
2019-01-14T13:11:43.807Z,17.63
2019-01-14T13:14:11.120Z,17.63
2019-01-14T13:16:38.318Z,17.73
2019-01-14T13:19:05.479Z,17.69
2019-01-14T13:21:32.693Z,17.69
2019-01-14T13:23:59.903Z,17.76
2019-01-14T13:26:27.206Z,17.73
2019-01-14T13:28:58.803Z,17.77
2019-01-14T13:31:26.064Z,17.76
2019-01-14T13:33:53.279Z,17.83
2019-01-14T13:36:20.796Z,17.89
2019-01-14T13:38:48.134Z,17.89
2019-01-14T13:41:15.408Z,18.03
2019-01-14T13:43:42.619Z,18.08
2019-01-14T13:46:09.938Z,18.12
2019-01-14T13:48:37.230Z,18.15
2019-01-14T13:51:04.426Z,18.13
2019-01-14T13:53:31.645Z,18.09
2019-01-14T13:55:59.532Z,17.98
2019-01-14T13:58:27.012Z,17.90
2019-01-14T14:00:54.250Z,17.90
2019-01-14T14:03:21.460Z,17.98
2019-01-14T14:05:48.798Z,17.99
2019-01-14T14:08:15.966Z,18.01
2019-01-14T14:10:43.128Z,18.00
2019-01-14T14:13:10.335Z,17.90
2019-01-14T14:15:37.521Z,17.93
2019-01-14T14:18:04.719Z,17.89
2019-01-14T14:20:31.903Z,17.88
2019-01-14T14:22:59.133Z,17.91
2019-01-14T14:25:26.291Z,17.92
2019-01-14T14:27:53.482Z,17.93
2019-01-14T14:30:23.125Z,17.91
2019-01-14T14:32:50.295Z,17.90
2019-01-14T14:35:17.548Z,17.90
2019-01-14T14:37:44.715Z,17.86
2019-01-14T14:40:12.125Z,17.75
2019-01-14T14:42:39.313Z,17.69
2019-01-14T14:45:07.444Z,17.66
2019-01-14T14:47:34.629Z,17.66
2019-01-14T14:50:01.811Z,17.61
2019-01-14T14:52:29.081Z,17.54
2019-01-14T14:54:56.290Z,17.53
2019-01-14T14:57:23.524Z,17.59
2019-01-14T14:59:50.728Z,17.59
2019-01-14T15:02:17.929Z,17.62
2019-01-14T15:04:45.107Z,17.56
2019-01-14T15:07:12.322Z,17.52
2019-01-14T15:09:39.452Z,17.56
2019-01-14T15:12:06.698Z,17.50
2019-01-14T15:14:33.914Z,17.40
2019-01-14T15:17:01.192Z,17.35
2019-01-14T15:19:28.462Z,17.35
2019-01-14T15:21:55.630Z,17.34
2019-01-14T15:24:22.821Z,17.28
2019-01-14T15:26:50.022Z,17.25
2019-01-14T15:29:17.272Z,17.21
2019-01-14T15:31:44.448Z,17.21
2019-01-14T15:34:11.612Z,17.21
2019-01-14T15:36:38.873Z,17.23
2019-01-14T15:39:08.526Z,17.23
2019-01-14T15:41:35.728Z,17.23
2019-01-14T15:44:03.158Z,17.16
2019-01-14T15:46:30.373Z,17.16
2019-01-14T15:48:57.685Z,17.14
2019-01-14T15:51:24.828Z,17.17
2019-01-14T15:53:52.011Z,17.13
2019-01-14T15:56:19.265Z,17.13
2019-01-14T15:58:46.471Z,17.13
2019-01-14T16:01:13.740Z,17.11
2019-01-14T16:03:40.903Z,17.11
2019-01-14T16:06:08.106Z,17.11
2019-01-14T16:08:35.321Z,17.08
2019-01-14T16:11:02.547Z,17.09
2019-01-14T16:13:29.762Z,17.06
2019-01-14T16:15:56.942Z,17.08
2019-01-14T16:18:24.152Z,17.08
2019-01-14T16:20:51.379Z,17.06
2019-01-14T16:23:18.630Z,17.05
2019-01-14T16:25:45.875Z,17.01
2019-01-14T16:28:13.298Z,16.98
2019-01-14T16:30:40.580Z,16.96
2019-01-14T16:33:07.787Z,16.96
2019-01-14T16:35:34.982Z,16.93
2019-01-14T16:38:02.337Z,16.93
2019-01-14T16:40:29.513Z,16.95
2019-01-14T16:42:56.688Z,16.97
2019-01-14T16:45:25.064Z,17.00
2019-01-14T16:47:52.251Z,16.99
2019-01-14T16:50:19.451Z,16.99
2019-01-14T16:52:47.032Z,16.98
2019-01-14T16:55:16.406Z,16.98
2019-01-14T16:57:43.661Z,16.98
2019-01-14T17:00:14.264Z,16.97
2019-01-14T17:02:41.453Z,16.97
2019-01-14T17:05:13.410Z,16.94
2019-01-14T17:07:37.834Z,16.94
2019-01-14T17:10:06.134Z,16.96
2019-01-14T17:12:33.374Z,16.94
2019-01-14T17:15:00.605Z,16.95
2019-01-14T17:17:27.845Z,16.96
2019-01-14T17:19:55.050Z,16.98
2019-01-14T17:22:22.282Z,16.96
2019-01-14T17:24:49.496Z,17.02
2019-01-14T17:27:18.379Z,17.02
2019-01-14T17:29:45.580Z,17.01
2019-01-14T17:32:12.909Z,17.01
2019-01-14T17:34:40.192Z,17.05
2019-01-14T17:37:07.459Z,17.05
2019-01-14T17:39:34.859Z,17.01
2019-01-14T17:42:02.372Z,17.03
2019-01-14T17:44:29.718Z,17.04
2019-01-14T17:46:56.938Z,17.04
2019-01-14T17:49:24.168Z,16.95
2019-01-14T17:51:51.434Z,16.96
2019-01-14T17:54:18.762Z,16.98
2019-01-14T17:56:45.989Z,16.97
2019-01-14T17:59:13.258Z,16.99
2019-01-14T18:01:40.770Z,17.04
2019-01-14T18:04:07.981Z,17.07
2019-01-14T18:06:35.131Z,17.10
2019-01-14T18:09:03.355Z,17.14
2019-01-14T18:11:30.787Z,17.22
2019-01-14T18:13:58.172Z,17.13
2019-01-14T18:16:25.430Z,17.13
2019-01-14T18:18:52.655Z,17.02
2019-01-14T18:21:19.969Z,17.02
2019-01-14T18:23:48.879Z,17.01
2019-01-14T18:26:16.535Z,17.03
2019-01-14T18:28:44.013Z,17.09
2019-01-14T18:31:11.449Z,17.05
2019-01-14T18:33:42.143Z,17.07
2019-01-14T18:36:09.338Z,17.14
2019-01-14T18:38:36.578Z,17.14
2019-01-14T18:41:03.728Z,17.14
2019-01-14T18:43:31.057Z,17.18
2019-01-14T18:45:58.267Z,17.24
2019-01-14T18:48:25.678Z,17.24
2019-01-14T18:50:53.021Z,17.24
2019-01-14T18:53:20.276Z,17.22
2019-01-14T18:55:47.479Z,17.19
2019-01-14T18:58:14.664Z,17.19
2019-01-14T19:00:41.922Z,17.23
2019-01-14T19:03:09.094Z,17.23
2019-01-14T19:05:36.297Z,17.18
2019-01-14T19:08:03.493Z,17.19
2019-01-14T19:10:30.703Z,17.27
2019-01-14T19:12:57.910Z,17.27
2019-01-14T19:15:25.117Z,17.28
2019-01-14T19:17:52.968Z,17.27
2019-01-14T19:20:22.691Z,17.25
2019-01-14T19:22:49.934Z,17.28
2019-01-14T19:25:17.107Z,17.21
2019-01-14T19:27:45.097Z,17.25
2019-01-14T19:30:13.640Z,17.31
2019-01-14T19:32:40.850Z,17.33
2019-01-14T19:35:08.050Z,17.27
2019-01-14T19:37:35.261Z,17.29
2019-01-14T19:40:05.286Z,17.34
2019-01-14T19:42:32.517Z,17.30
2019-01-14T19:44:59.706Z,17.30
2019-01-14T19:47:26.890Z,17.31
2019-01-14T19:49:54.118Z,17.33
2019-01-14T19:52:21.407Z,17.35
2019-01-14T19:54:48.595Z,17.34
2019-01-14T19:57:15.845Z,17.34
2019-01-14T19:59:43.059Z,17.37
2019-01-14T20:02:10.210Z,17.39
2019-01-14T20:04:37.576Z,17.42
2019-01-14T20:07:10.474Z,17.42
2019-01-14T20:09:33.930Z,17.34
2019-01-14T20:12:01.178Z,17.34
2019-01-14T20:14:28.375Z,17.32
2019-01-14T20:16:55.653Z,17.27
2019-01-14T20:19:22.816Z,17.32
2019-01-14T20:21:49.997Z,17.32
2019-01-14T20:24:17.243Z,17.28
2019-01-14T20:26:44.492Z,17.25
2019-01-14T20:29:11.690Z,17.23
2019-01-14T20:31:39.636Z,17.25
2019-01-14T20:34:06.851Z,17.29
2019-01-14T20:36:34.222Z,17.27
2019-01-14T20:39:01.441Z,17.27
2019-01-14T20:41:28.656Z,17.27
2019-01-14T20:43:55.856Z,17.23
2019-01-14T20:46:23.096Z,17.23
2019-01-14T20:48:50.755Z,17.20
2019-01-14T20:51:17.888Z,17.18
2019-01-14T20:53:45.176Z,17.14
2019-01-14T20:56:13.011Z,17.14
2019-01-14T20:58:40.241Z,17.15
2019-01-14T21:01:07.488Z,17.10
2019-01-14T21:03:34.713Z,17.09
2019-01-14T21:06:02.072Z,17.15
2019-01-14T21:08:29.304Z,17.19
2019-01-14T21:10:56.493Z,17.19
2019-01-14T21:13:23.739Z,17.24
2019-01-14T21:15:50.993Z,17.19
2019-01-14T21:18:18.200Z,17.13
2019-01-14T21:20:45.398Z,17.04
2019-01-14T21:23:12.616Z,17.01
2019-01-14T21:25:39.908Z,17.06
2019-01-14T21:28:07.173Z,17.06
2019-01-14T21:30:34.381Z,17.30
2019-01-14T21:33:01.735Z,17.30
2019-01-14T21:35:28.918Z,17.28
2019-01-14T21:37:58.329Z,17.29
2019-01-14T21:40:25.610Z,17.24
2019-01-14T21:42:52.804Z,17.26
2019-01-14T21:45:20.014Z,17.27
2019-01-14T21:47:47.337Z,17.27
2019-01-14T21:50:16.179Z,17.22
2019-01-14T21:52:43.375Z,17.23
2019-01-14T21:55:12.648Z,17.25
2019-01-14T21:57:39.935Z,17.35
2019-01-14T22:00:10.715Z,17.37
2019-01-14T22:02:39.282Z,17.34
2019-01-14T22:05:07.035Z,17.36
2019-01-14T22:07:34.374Z,17.39
2019-01-14T22:10:08.697Z,17.39
2019-01-14T22:12:35.932Z,17.42
2019-01-14T22:15:04.204Z,17.44
2019-01-14T22:17:31.457Z,17.43
2019-01-14T22:19:59.086Z,17.45
2019-01-14T22:22:26.364Z,17.45
2019-01-14T22:24:53.613Z,17.40
2019-01-14T22:27:20.842Z,17.38
2019-01-14T22:29:48.062Z,17.37
2019-01-14T22:32:15.335Z,17.48
2019-01-14T22:34:42.618Z,17.48
2019-01-14T22:37:09.847Z,17.42
2019-01-14T22:39:37.081Z,17.37
2019-01-14T22:42:04.307Z,17.34
2019-01-14T22:44:31.532Z,17.32
2019-01-14T22:46:58.737Z,17.32
2019-01-14T22:49:26.009Z,17.32
2019-01-14T22:51:53.439Z,17.32
2019-01-14T22:54:20.683Z,17.32
2019-01-14T22:56:47.962Z,17.34
2019-01-14T22:59:15.277Z,17.34
2019-01-14T23:01:46.830Z,17.32
2019-01-14T23:04:13.990Z,17.34
2019-01-14T23:06:41.227Z,17.35
2019-01-14T23:09:08.879Z,17.34
2019-01-14T23:11:36.139Z,17.32
2019-01-14T23:14:03.358Z,17.32
2019-01-14T23:16:30.580Z,17.28
2019-01-14T23:18:57.751Z,17.28
2019-01-14T23:21:24.972Z,17.33
2019-01-14T23:23:52.163Z,17.33
2019-01-14T23:26:19.409Z,17.32
2019-01-14T23:28:46.576Z,17.30
2019-01-14T23:31:13.777Z,17.34
2019-01-14T23:33:40.986Z,17.34
2019-01-14T23:36:08.196Z,17.34
2019-01-14T23:38:35.434Z,17.33
2019-01-14T23:41:02.749Z,17.33
2019-01-14T23:43:29.977Z,17.30
2019-01-14T23:45:57.174Z,17.28
2019-01-14T23:48:24.383Z,17.32
2019-01-14T23:50:51.827Z,17.32
2019-01-14T23:53:19.067Z,17.29
2019-01-14T23:55:46.235Z,17.33
2019-01-14T23:58:13.503Z,17.33
